KBYI/BYI METAR and TAF weather

Enter ICAO airport designator
Station Type Date Time Source
KBYI METAR 2022/09/26 08:53 UTC NOAA

KBYI 260853Z AUTO 23003KT 10SM CLR 06/04 A3024 RMK AO2 SLP212 T00610039 53001 $


Station Type Date Time Source
KBYI Decoded METAR 2022/09/26 08:53 UTC NOAA

BURLEY MUNICIPAL AIRPORT, ID, United States (KBYI) 42-33N 113-46W 1264M
Sep 26, 2022 - 04:53 AM EDT / 2022.09.26 0853 UTC
Wind: from the SW (230 degrees) at 3 MPH (3 KT):0
Visibility: 10 mile(s):0
Sky conditions: clear
Temperature: 43.0 F (6.1 C)
Dew Point: 39.0 F (3.9 C)
Relative Humidity: 85%
Pressure (altimeter): 30.24 in. Hg (1024 hPa)
Pressure tendency: 0.00 inches (0.1 hPa) higher than three hours ago
ob: KBYI 260853Z AUTO 23003KT 10SM CLR 06/04 A3024 RMK AO2 SLP212 T00610039 53001
cycle: 9

Station Type Date Time Source
KBYI TAF 2022/09/26 06:22 UTC NOAA

TAF KBYI 260520Z 2606/2706 VRB05KT P6SM SKC

Example: see airport list